Terminal Aerodrome Forecast
Issued by NWS Goodland, KS

Home | Current Version | Previous Version | Text Only | Print | Product List | Glossary On
Versions: 1 2 3 4 5 6 7 8 9 10 11 12 13
000
FTUS43 KGLD 202320
TAFGLD
TAF
KGLD 202320Z 2100/2124 24007KT P6SM SCT070 SCT150
      TEMPO 2102/2106 BKN070
     FM211500 24010G16KT P6SM SCT150=

USA.gov is the U.S. government's official web portal to all federal, state and local government web resources and services.